createdAt,value
2023-05-02T00:01:44.122Z,98265.00
2023-05-02T00:04:18.385Z,98258.00
2023-05-02T00:06:54.067Z,98257.00
2023-05-02T00:09:28.372Z,98254.00
2023-05-02T00:12:04.003Z,98257.00
2023-05-02T00:14:38.099Z,98245.00
2023-05-02T00:17:19.833Z,98251.00
2023-05-02T00:19:54.064Z,98244.00
2023-05-02T00:22:28.372Z,98248.00
2023-05-02T00:25:03.221Z,98250.00
2023-05-02T00:27:38.686Z,98252.00
2023-05-02T00:30:14.475Z,98257.00
2023-05-02T00:32:48.595Z,98249.00
2023-05-02T00:35:22.714Z,98260.00
2023-05-02T00:37:57.020Z,98252.00
2023-05-02T00:40:32.937Z,98251.00
2023-05-02T00:43:08.304Z,98242.00
2023-05-02T00:45:44.680Z,98244.00
2023-05-02T00:48:20.616Z,98243.00
2023-05-02T00:50:54.788Z,98242.00
2023-05-02T00:53:28.824Z,98246.00
2023-05-02T00:56:03.928Z,98251.00
2023-05-02T00:58:41.559Z,98250.00
2023-05-02T01:01:37.314Z,98259.00
2023-05-02T01:04:31.992Z,98262.00
2023-05-02T01:07:24.032Z,98259.00
2023-05-02T01:10:11.359Z,98267.00
2023-05-02T01:12:55.514Z,98258.00
2023-05-02T01:15:34.623Z,98265.00
2023-05-02T01:18:14.908Z,98263.00
2023-05-02T01:20:53.258Z,98263.00
2023-05-02T01:23:40.337Z,98269.00
2023-05-02T01:26:27.405Z,98271.00
2023-05-02T01:29:04.667Z,98271.00
2023-05-02T01:31:44.250Z,98260.00
2023-05-02T01:34:22.098Z,98272.00
2023-05-02T01:36:59.262Z,98272.00
2023-05-02T01:39:34.896Z,98272.00
2023-05-02T01:42:09.805Z,98274.00
2023-05-02T01:44:46.530Z,98265.00
2023-05-02T01:47:23.032Z,98279.00
2023-05-02T01:49:58.954Z,98282.00
2023-05-02T01:52:33.629Z,98272.00
2023-05-02T01:55:14.160Z,98272.00
2023-05-02T01:57:50.476Z,98273.00
2023-05-02T02:00:27.378Z,98274.00
2023-05-02T02:03:01.958Z,98283.00
2023-05-02T02:05:37.699Z,98272.00
2023-05-02T02:08:12.929Z,98281.00
2023-05-02T02:10:55.542Z,98278.00
2023-05-02T02:13:37.097Z,98269.00
2023-05-02T02:16:20.635Z,98270.00
2023-05-02T02:18:57.734Z,98279.00
2023-05-02T02:21:33.260Z,98281.00
2023-05-02T02:24:08.583Z,98286.00
2023-05-02T02:26:42.816Z,98284.00
2023-05-02T02:29:16.841Z,98291.00
2023-05-02T02:31:52.236Z,98287.00
2023-05-02T02:34:26.359Z,98288.00
2023-05-02T02:37:08.776Z,98282.00
2023-05-02T02:39:52.685Z,98288.00
2023-05-02T02:42:39.827Z,98290.00
2023-05-02T02:45:28.509Z,98302.00
2023-05-02T02:48:20.524Z,98313.00
2023-05-02T02:51:06.135Z,98314.00
2023-05-02T02:53:53.540Z,98313.00
2023-05-02T02:56:31.568Z,98316.00
2023-05-02T02:59:12.167Z,98315.00
2023-05-02T03:01:50.460Z,98318.00
2023-05-02T03:04:29.009Z,98323.00
2023-05-02T03:07:04.211Z,98324.00
2023-05-02T03:09:44.956Z,98326.00
2023-05-02T03:12:19.003Z,98337.00
2023-05-02T03:14:53.066Z,98338.00
2023-05-02T03:17:27.187Z,98346.00
2023-05-02T03:20:03.523Z,98346.00
2023-05-02T03:22:37.538Z,98347.00
2023-05-02T03:25:11.678Z,98346.00
2023-05-02T03:27:45.694Z,98347.00
2023-05-02T03:30:19.780Z,98351.00
2023-05-02T03:32:53.846Z,98365.00
2023-05-02T03:35:29.174Z,98356.00
2023-05-02T03:38:03.194Z,98362.00
2023-05-02T03:40:37.408Z,98356.00
2023-05-02T03:43:11.479Z,98372.00
2023-05-02T03:45:47.570Z,98376.00
2023-05-02T03:48:22.856Z,98376.00
2023-05-02T03:50:58.187Z,98377.00
2023-05-02T03:53:32.561Z,98386.00
2023-05-02T03:56:08.048Z,98380.00
2023-05-02T03:58:42.271Z,98400.00
2023-05-02T04:01:17.119Z,98406.00
2023-05-02T04:03:53.138Z,98401.00
2023-05-02T04:06:28.605Z,98412.00
2023-05-02T04:09:02.719Z,98404.00
2023-05-02T04:11:36.793Z,98413.00
2023-05-02T04:14:10.803Z,98414.00
2023-05-02T04:16:49.867Z,98413.00
2023-05-02T04:19:23.987Z,98429.00
2023-05-02T04:21:59.522Z,98427.00
2023-05-02T04:24:33.695Z,98427.00
2023-05-02T04:27:07.899Z,98424.00
2023-05-02T04:29:41.945Z,98425.00
2023-05-02T04:32:16.036Z,98432.00
2023-05-02T04:34:50.512Z,98429.00
2023-05-02T04:37:26.672Z,98435.00
2023-05-02T04:40:00.913Z,98435.00
2023-05-02T04:42:35.060Z,98442.00
2023-05-02T04:45:10.424Z,98446.00
2023-05-02T04:47:44.451Z,98451.00
2023-05-02T04:50:18.888Z,98454.00
2023-05-02T04:52:54.249Z,98451.00
2023-05-02T04:55:28.287Z,98451.00
2023-05-02T04:58:02.430Z,98452.00
2023-05-02T05:00:36.470Z,98449.00
2023-05-02T05:03:10.707Z,98452.00
2023-05-02T05:05:44.886Z,98447.00
2023-05-02T05:08:20.750Z,98454.00
2023-05-02T05:10:54.837Z,98451.00
2023-05-02T05:13:29.528Z,98454.00
2023-05-02T05:16:03.722Z,98461.00
2023-05-02T05:18:40.799Z,98466.00
2023-05-02T05:21:14.997Z,98457.00
2023-05-02T05:23:51.243Z,98468.00
2023-05-02T05:26:26.834Z,98480.00
2023-05-02T05:29:00.873Z,98476.00
2023-05-02T05:31:35.044Z,98474.00
2023-05-02T05:34:09.272Z,98481.00
2023-05-02T05:36:43.770Z,98478.00
2023-05-02T05:39:19.131Z,98487.00
2023-05-02T05:41:54.598Z,98491.00
2023-05-02T05:44:28.661Z,98493.00
2023-05-02T05:47:02.788Z,98505.00
2023-05-02T05:49:38.740Z,98504.00
2023-05-02T05:52:13.156Z,98510.00
2023-05-02T05:54:48.772Z,98518.00
2023-05-02T05:57:22.915Z,98514.00
2023-05-02T05:59:57.214Z,98521.00
2023-05-02T06:02:31.462Z,98530.00
2023-05-02T06:05:06.143Z,98538.00
2023-05-02T06:07:40.423Z,98539.00
2023-05-02T06:10:16.054Z,98545.00
2023-05-02T06:12:50.320Z,98554.00
2023-05-02T06:15:24.352Z,98543.00
2023-05-02T06:17:58.526Z,98552.00
2023-05-02T06:20:32.642Z,98548.00
2023-05-02T06:23:06.760Z,98561.00
2023-05-02T06:25:42.227Z,98570.00
2023-05-02T06:28:16.379Z,98571.00
2023-05-02T06:30:59.543Z,98569.00
2023-05-02T06:33:35.400Z,98574.00
2023-05-02T06:36:09.451Z,98574.00
2023-05-02T06:38:43.464Z,98587.00
2023-05-02T06:41:20.687Z,98582.00
2023-05-02T06:43:54.781Z,98590.00
2023-05-02T06:46:31.498Z,98594.00
2023-05-02T06:49:05.714Z,98598.00
2023-05-02T06:51:39.716Z,98601.00
2023-05-02T06:54:14.792Z,98601.00
2023-05-02T06:56:50.303Z,98598.00
2023-05-02T06:59:24.352Z,98602.00
2023-05-02T07:01:58.344Z,98611.00
2023-05-02T07:04:32.393Z,98609.00
2023-05-02T07:07:07.300Z,98607.00
2023-05-02T07:09:41.366Z,98623.00
2023-05-02T07:12:16.704Z,98618.00
2023-05-02T07:14:50.843Z,98624.00
2023-05-02T07:17:25.647Z,98625.00
2023-05-02T07:20:00.003Z,98625.00
2023-05-02T07:22:34.327Z,98622.00
2023-05-02T07:25:09.005Z,98624.00
2023-05-02T07:27:44.473Z,98622.00
2023-05-02T07:30:18.529Z,98630.00
2023-05-02T07:32:53.013Z,98638.00
2023-05-02T07:35:27.172Z,98636.00
2023-05-02T07:38:01.206Z,98635.00
2023-05-02T07:40:35.234Z,98641.00
2023-05-02T07:43:11.456Z,98645.00
2023-05-02T07:45:45.810Z,98641.00
2023-05-02T07:48:20.244Z,98654.00
2023-05-02T07:50:54.273Z,98652.00
2023-05-02T07:53:28.308Z,98652.00
2023-05-02T07:56:04.513Z,98649.00
2023-05-02T07:58:39.973Z,98653.00
2023-05-02T08:01:14.003Z,98648.00
2023-05-02T08:03:49.599Z,98653.00
2023-05-02T08:06:24.084Z,98655.00
2023-05-02T08:08:58.400Z,98657.00
2023-05-02T08:11:32.406Z,98658.00
2023-05-02T08:14:07.787Z,98661.00
2023-05-02T08:16:42.976Z,98656.00
2023-05-02T08:19:18.810Z,98659.00
2023-05-02T08:21:54.632Z,98665.00
2023-05-02T08:24:28.686Z,98673.00
2023-05-02T08:27:03.812Z,98679.00
2023-05-02T08:29:39.235Z,98685.00
2023-05-02T08:32:13.437Z,98688.00
2023-05-02T08:34:47.571Z,98690.00
2023-05-02T08:37:21.757Z,98694.00
2023-05-02T08:39:55.838Z,98701.00
2023-05-02T08:42:32.259Z,98697.00
2023-05-02T08:45:10.941Z,98702.00
2023-05-02T08:47:45.619Z,98698.00
2023-05-02T08:50:20.920Z,98703.00
2023-05-02T08:52:55.381Z,98700.00
2023-05-02T08:55:29.433Z,98704.00
2023-05-02T08:58:05.170Z,98703.00
2023-05-02T09:00:43.272Z,98702.00
2023-05-02T09:03:27.331Z,98709.00
2023-05-02T09:06:08.279Z,98712.00
2023-05-02T09:08:43.902Z,98702.00
2023-05-02T09:11:18.997Z,98716.00
2023-05-02T09:13:53.850Z,98719.00
2023-05-02T09:16:29.845Z,98715.00
2023-05-02T09:19:03.933Z,98722.00
2023-05-02T09:21:40.009Z,98725.00
2023-05-02T09:24:19.141Z,98724.00
2023-05-02T09:27:02.734Z,98726.00
2023-05-02T09:29:38.603Z,98725.00
2023-05-02T09:32:14.084Z,98728.00
2023-05-02T09:35:06.259Z,98730.00
2023-05-02T09:37:40.765Z,98732.00
2023-05-02T09:40:15.851Z,98728.00
2023-05-02T09:42:50.003Z,98732.00
2023-05-02T09:45:26.061Z,98729.00
2023-05-02T09:48:04.806Z,98726.00
2023-05-02T09:50:39.613Z,98730.00
2023-05-02T09:53:14.174Z,98735.00
2023-05-02T09:55:48.401Z,98730.00
2023-05-02T09:58:24.532Z,98733.00
2023-05-02T10:00:59.651Z,98734.00
2023-05-02T10:03:39.052Z,98724.00
2023-05-02T10:06:13.926Z,98729.00
2023-05-02T10:08:49.291Z,98727.00
2023-05-02T10:11:25.053Z,98725.00
2023-05-02T10:14:00.375Z,98730.00
2023-05-02T10:16:37.902Z,98730.00
2023-05-02T10:19:19.715Z,98721.00
2023-05-02T10:21:54.819Z,98727.00
2023-05-02T10:24:29.998Z,98724.00
2023-05-02T10:27:06.523Z,98734.00
2023-05-02T10:29:41.912Z,98732.00
2023-05-02T10:32:21.496Z,98733.00
2023-05-02T10:34:58.868Z,98730.00
2023-05-02T10:37:36.175Z,98732.00
2023-05-02T10:40:12.966Z,98739.00
2023-05-02T10:42:51.099Z,98729.00
2023-05-02T10:45:33.635Z,98726.00
2023-05-02T10:48:19.217Z,98721.00
2023-05-02T10:50:56.000Z,98722.00
2023-05-02T10:53:33.431Z,98729.00
2023-05-02T10:56:21.352Z,98726.00
2023-05-02T10:59:27.548Z,98727.00
2023-05-02T11:02:03.145Z,98721.00
2023-05-02T11:05:02.701Z,98719.00
2023-05-02T11:07:39.205Z,98718.00
2023-05-02T11:10:28.483Z,98717.00
2023-05-02T11:13:02.539Z,98720.00
2023-05-02T11:15:56.232Z,98714.00
2023-05-02T11:19:00.746Z,98712.00
2023-05-02T11:21:38.981Z,98716.00
2023-05-02T11:24:42.527Z,98716.00
2023-05-02T11:27:39.125Z,98717.00
2023-05-02T11:30:13.756Z,98715.00
2023-05-02T11:33:17.613Z,98715.00
2023-05-02T11:35:51.835Z,98710.00
2023-05-02T11:38:27.960Z,98709.00
2023-05-02T11:41:04.295Z,98707.00
2023-05-02T11:43:38.404Z,98703.00
2023-05-02T11:46:12.570Z,98711.00
2023-05-02T11:48:46.688Z,98701.00
2023-05-02T11:51:24.590Z,98710.00
2023-05-02T11:53:58.691Z,98704.00
2023-05-02T11:56:34.288Z,98697.00
2023-05-02T11:59:08.443Z,98700.00
2023-05-02T12:01:49.619Z,98700.00
2023-05-02T12:04:25.659Z,98700.00
2023-05-02T12:06:59.835Z,98701.00
2023-05-02T12:09:33.916Z,98697.00
2023-05-02T12:12:10.444Z,98699.00
2023-05-02T12:14:45.264Z,98693.00
2023-05-02T12:17:19.350Z,98702.00
2023-05-02T12:19:53.538Z,98697.00
2023-05-02T12:22:29.718Z,98693.00
2023-05-02T12:25:04.739Z,98692.00
2023-05-02T12:27:40.562Z,98700.00
2023-05-02T12:30:27.526Z,98710.00
2023-05-02T12:33:03.441Z,98703.00
2023-05-02T12:35:37.671Z,98697.00
2023-05-02T12:38:17.339Z,98698.00
2023-05-02T12:40:53.893Z,98694.00
2023-05-02T12:43:44.302Z,98694.00
2023-05-02T12:46:18.572Z,98692.00
2023-05-02T12:49:05.193Z,98686.00
2023-05-02T12:51:40.901Z,98689.00
2023-05-02T12:54:22.059Z,98698.00
2023-05-02T12:56:56.117Z,98700.00
2023-05-02T12:59:33.029Z,98702.00
2023-05-02T13:02:07.066Z,98704.00
2023-05-02T13:04:42.379Z,98706.00
2023-05-02T13:07:16.411Z,98707.00
2023-05-02T13:09:50.455Z,98714.00
2023-05-02T13:12:24.512Z,98711.00
2023-05-02T13:14:59.891Z,98710.00
2023-05-02T13:17:34.157Z,98714.00
2023-05-02T13:20:10.626Z,98706.00
2023-05-02T13:22:44.725Z,98712.00
2023-05-02T13:25:18.872Z,98713.00
2023-05-02T13:27:52.956Z,98720.00
2023-05-02T13:30:28.331Z,98715.00
2023-05-02T13:33:02.428Z,98711.00
2023-05-02T13:35:36.668Z,98708.00
2023-05-02T13:38:10.907Z,98708.00
2023-05-02T13:40:44.942Z,98704.00
2023-05-02T13:43:19.001Z,98713.00
2023-05-02T13:45:54.512Z,98708.00
2023-05-02T13:48:28.580Z,98698.00
2023-05-02T13:51:03.219Z,98701.00
2023-05-02T13:53:37.556Z,98716.00
2023-05-02T13:56:11.603Z,98708.00
2023-05-02T13:58:45.706Z,98705.00
2023-05-02T14:01:21.204Z,98701.00
2023-05-02T14:03:55.703Z,98702.00
2023-05-02T14:06:29.840Z,98706.00
2023-05-02T14:09:04.275Z,98701.00
2023-05-02T14:11:38.275Z,98699.00
2023-05-02T14:14:12.894Z,98688.00
2023-05-02T14:16:50.263Z,98698.00
2023-05-02T14:19:24.621Z,98705.00
2023-05-02T14:21:58.733Z,98704.00
2023-05-02T14:24:32.783Z,98706.00
2023-05-02T14:27:07.701Z,98698.00
2023-05-02T14:29:41.954Z,98701.00
2023-05-02T14:32:17.336Z,98705.00
2023-05-02T14:34:51.374Z,98711.00
2023-05-02T14:37:25.527Z,98706.00
2023-05-02T14:39:59.827Z,98697.00
2023-05-02T14:42:34.024Z,98704.00
2023-05-02T14:45:09.893Z,98700.00
2023-05-02T14:47:45.480Z,98710.00
2023-05-02T14:50:19.742Z,98709.00
2023-05-02T14:52:54.272Z,98706.00
2023-05-02T14:55:28.424Z,98707.00
2023-05-02T14:58:02.703Z,98709.00
2023-05-02T15:00:37.958Z,98708.00
2023-05-02T15:03:13.993Z,98704.00
2023-05-02T15:05:48.594Z,98708.00
2023-05-02T15:08:22.774Z,98710.00
2023-05-02T15:10:57.080Z,98709.00
2023-05-02T15:13:31.162Z,98714.00
2023-05-02T15:16:05.604Z,98714.00
2023-05-02T15:18:40.980Z,98720.00
2023-05-02T15:21:15.016Z,98728.00
2023-05-02T15:23:49.124Z,98723.00
2023-05-02T15:26:24.364Z,98730.00
2023-05-02T15:28:58.477Z,98727.00
2023-05-02T15:31:33.759Z,98745.00
2023-05-02T15:34:09.682Z,98725.00
2023-05-02T15:36:43.712Z,98733.00
2023-05-02T15:39:19.156Z,98729.00
2023-05-02T15:41:53.558Z,98734.00
2023-05-02T15:44:28.072Z,98726.00
2023-05-02T15:47:02.160Z,98730.00
2023-05-02T15:49:37.544Z,98734.00
2023-05-02T15:52:11.580Z,98741.00
2023-05-02T15:54:45.564Z,98741.00
2023-05-02T15:57:21.318Z,98743.00
2023-05-02T15:59:55.796Z,98742.00
2023-05-02T16:02:29.824Z,98736.00
2023-05-02T16:05:06.046Z,98734.00
2023-05-02T16:07:40.008Z,98737.00
2023-05-02T16:10:14.291Z,98739.00
2023-05-02T16:12:48.386Z,98737.00
2023-05-02T16:15:23.069Z,98726.00
2023-05-02T16:17:57.285Z,98734.00
2023-05-02T16:20:36.426Z,98730.00
2023-05-02T16:23:10.539Z,98737.00
2023-05-02T16:25:44.546Z,98741.00
2023-05-02T16:28:18.613Z,98741.00
2023-05-02T16:30:52.803Z,98737.00
2023-05-02T16:33:26.773Z,98747.00
2023-05-02T16:36:06.553Z,98745.00
2023-05-02T16:38:40.667Z,98746.00
2023-05-02T16:41:14.721Z,98747.00
2023-05-02T16:43:50.393Z,98737.00
2023-05-02T16:46:24.601Z,98747.00
2023-05-02T16:48:58.648Z,98740.00
2023-05-02T16:51:34.070Z,98741.00
2023-05-02T16:54:08.105Z,98739.00
2023-05-02T16:56:42.672Z,98746.00
2023-05-02T16:59:17.059Z,98753.00
2023-05-02T17:01:51.239Z,98750.00
2023-05-02T17:04:25.348Z,98750.00
2023-05-02T17:07:00.737Z,98751.00
2023-05-02T17:09:34.773Z,98746.00
2023-05-02T17:12:10.292Z,98758.00
2023-05-02T17:14:45.373Z,98761.00
2023-05-02T17:17:22.733Z,98756.00
2023-05-02T17:19:56.900Z,98759.00
2023-05-02T17:22:32.281Z,98760.00
2023-05-02T17:25:07.117Z,98763.00
2023-05-02T17:27:41.815Z,98765.00
2023-05-02T17:30:16.368Z,98772.00
2023-05-02T17:32:50.378Z,98761.00
2023-05-02T17:35:24.451Z,98768.00
2023-05-02T17:37:59.786Z,98771.00
2023-05-02T17:40:35.347Z,98773.00
2023-05-02T17:43:10.070Z,98773.00
2023-05-02T17:45:44.583Z,98778.00
2023-05-02T17:48:18.970Z,98776.00
2023-05-02T17:50:55.439Z,98780.00
2023-05-02T17:53:31.326Z,98782.00
2023-05-02T17:56:06.746Z,98776.00
2023-05-02T17:58:40.730Z,98786.00
2023-05-02T18:01:14.947Z,98787.00
2023-05-02T18:03:49.952Z,98801.00
2023-05-02T18:06:24.222Z,98782.00
2023-05-02T18:08:59.789Z,98778.00
2023-05-02T18:11:33.904Z,98786.00
2023-05-02T18:14:08.012Z,98785.00
2023-05-02T18:16:46.906Z,98784.00
2023-05-02T18:19:21.944Z,98791.00
2023-05-02T18:21:56.174Z,98794.00
2023-05-02T18:24:32.713Z,98797.00
2023-05-02T18:27:06.763Z,98806.00
2023-05-02T18:29:41.315Z,98812.00
2023-05-02T18:32:15.589Z,98809.00
2023-05-02T18:34:49.611Z,98818.00
2023-05-02T18:37:31.027Z,98824.00
2023-05-02T18:40:08.473Z,98821.00
2023-05-02T18:42:42.463Z,98820.00
2023-05-02T18:45:16.977Z,98826.00
2023-05-02T18:47:51.082Z,98827.00
2023-05-02T18:50:26.189Z,98840.00
2023-05-02T18:53:00.202Z,98845.00
2023-05-02T18:55:35.555Z,98837.00
2023-05-02T18:58:09.514Z,98839.00
2023-05-02T19:00:44.278Z,98845.00
2023-05-02T19:03:18.978Z,98839.00
2023-05-02T19:05:53.076Z,98841.00
2023-05-02T19:08:27.114Z,98850.00
2023-05-02T19:11:02.527Z,98843.00
2023-05-02T19:13:36.559Z,98851.00
2023-05-02T19:16:15.024Z,98852.00
2023-05-02T19:18:52.300Z,98849.00
2023-05-02T19:21:27.238Z,98855.00
2023-05-02T19:24:01.813Z,98851.00
2023-05-02T19:26:37.176Z,98850.00
2023-05-02T19:29:11.170Z,98857.00
2023-05-02T19:31:46.324Z,98854.00
2023-05-02T19:34:20.943Z,98869.00
2023-05-02T19:36:55.037Z,98869.00
2023-05-02T19:39:29.408Z,98873.00
2023-05-02T19:42:05.200Z,98875.00
2023-05-02T19:44:39.200Z,98881.00
2023-05-02T19:47:13.210Z,98882.00
2023-05-02T19:49:47.184Z,98894.00
2023-05-02T19:52:21.235Z,98891.00
2023-05-02T19:54:55.257Z,98893.00
2023-05-02T19:57:30.918Z,98888.00
2023-05-02T20:00:07.340Z,98891.00
2023-05-02T20:02:41.542Z,98889.00
2023-05-02T20:05:15.697Z,98891.00
2023-05-02T20:07:49.716Z,98895.00
2023-05-02T20:10:23.910Z,98898.00
2023-05-02T20:12:59.324Z,98900.00
2023-05-02T20:15:33.458Z,98903.00
2023-05-02T20:18:07.519Z,98904.00
2023-05-02T20:20:41.650Z,98918.00
2023-05-02T20:23:15.957Z,98914.00
2023-05-02T20:25:50.035Z,98914.00
2023-05-02T20:28:25.808Z,98917.00
2023-05-02T20:30:59.803Z,98917.00
2023-05-02T20:33:44.637Z,98925.00
2023-05-02T20:36:19.618Z,98924.00
2023-05-02T20:38:53.645Z,98929.00
2023-05-02T20:41:27.793Z,98941.00
2023-05-02T20:44:03.677Z,98931.00
2023-05-02T20:46:37.951Z,98933.00
2023-05-02T20:49:12.393Z,98928.00
2023-05-02T20:51:46.400Z,98925.00
2023-05-02T20:54:20.432Z,98925.00
2023-05-02T20:56:54.516Z,98933.00
2023-05-02T20:59:30.012Z,98918.00
2023-05-02T21:02:04.256Z,98927.00
2023-05-02T21:04:38.430Z,98925.00
2023-05-02T21:07:12.439Z,98926.00
2023-05-02T21:09:46.437Z,98926.00
2023-05-02T21:12:20.515Z,98923.00
2023-05-02T21:14:56.036Z,98924.00
2023-05-02T21:17:30.143Z,98922.00
2023-05-02T21:20:05.467Z,98929.00
2023-05-02T21:22:39.831Z,98923.00
2023-05-02T21:25:13.891Z,98922.00
2023-05-02T21:27:48.141Z,98921.00
2023-05-02T21:30:24.559Z,98924.00
2023-05-02T21:32:58.673Z,98921.00
2023-05-02T21:35:36.408Z,98924.00
2023-05-02T21:38:10.784Z,98922.00
2023-05-02T21:40:44.829Z,98924.00
2023-05-02T21:43:19.632Z,98926.00
2023-05-02T21:45:55.339Z,98927.00
2023-05-02T21:48:30.031Z,98919.00
2023-05-02T21:51:08.304Z,98917.00
2023-05-02T21:53:42.377Z,98915.00
2023-05-02T21:56:16.582Z,98916.00
2023-05-02T21:58:51.324Z,98910.00
2023-05-02T22:01:26.927Z,98914.00
2023-05-02T22:04:01.212Z,98910.00
2023-05-02T22:06:35.299Z,98918.00
2023-05-02T22:09:10.421Z,98923.00
2023-05-02T22:11:44.507Z,98923.00
2023-05-02T22:14:18.587Z,98915.00
2023-05-02T22:16:57.120Z,98925.00
2023-05-02T22:19:34.015Z,98923.00
2023-05-02T22:22:08.190Z,98930.00
2023-05-02T22:24:42.303Z,98922.00
2023-05-02T22:27:16.287Z,98921.00
2023-05-02T22:29:50.278Z,98923.00
2023-05-02T22:32:25.770Z,98926.00
2023-05-02T22:35:00.005Z,98928.00
2023-05-02T22:37:34.167Z,98928.00
2023-05-02T22:40:10.518Z,98931.00
2023-05-02T22:42:44.512Z,98938.00
2023-05-02T22:45:18.682Z,98938.00
2023-05-02T22:47:54.268Z,98927.00
2023-05-02T22:50:31.430Z,98936.00
2023-05-02T22:53:05.711Z,98938.00
2023-05-02T22:55:40.111Z,98936.00
2023-05-02T22:58:14.467Z,98924.00
2023-05-02T23:00:48.562Z,98924.00
2023-05-02T23:03:24.269Z,98935.00
2023-05-02T23:05:58.372Z,98928.00
2023-05-02T23:08:33.423Z,98927.00
2023-05-02T23:11:07.625Z,98933.00
2023-05-02T23:13:41.714Z,98931.00
2023-05-02T23:16:15.892Z,98934.00
2023-05-02T23:18:51.372Z,98929.00
2023-05-02T23:21:26.195Z,98931.00
2023-05-02T23:24:00.547Z,98929.00
2023-05-02T23:26:34.559Z,98935.00
2023-05-02T23:29:08.840Z,98931.00
2023-05-02T23:31:43.068Z,98934.00
2023-05-02T23:34:18.662Z,98929.00
2023-05-02T23:36:53.621Z,98933.00
2023-05-02T23:39:30.416Z,98936.00
2023-05-02T23:42:07.804Z,98936.00
2023-05-02T23:44:43.583Z,98937.00
2023-05-02T23:47:17.973Z,98942.00
2023-05-02T23:49:53.887Z,98939.00
2023-05-02T23:52:28.186Z,98936.00
2023-05-02T23:55:02.296Z,98929.00
2023-05-02T23:57:36.370Z,98930.00
